Vila Real, Portugal

11:42 PM WET on January 25, 2015 (GMT +0000)
Moimenta Da Beira | Change Station
CLOSE
Current Station
Personal Weather Station
Location: Moimenta Da Beira, PT
Elevation: 2116 ft
Nearby Weather Stations

Elev 2116 ft 40.98 °N, 7.61 °W | Updated 2 minutes ago

Clear
Clear
37.4 °F
Feels Like 37 °F
N
0.0
Wind Variable Wind from NW
Gusts 1.6 mph

Today
High -- | Low -- °F
--% Chance of Precip.
Yesterday
High -- | Low -- °F
Precip. -- in
7:48 AM 5:38 PM
Waxing Crescent, 37% visible
Pressure 30.42 in
Visibility 5.6 miles
Clouds
Windchill 37 °F
Dew Point 31 °F
Humidity 79%
Rainfall 0.00 in
Snow Depth Not available.
UV Not available.
Pollen Not available.
Air Quality Not available.
Flu Activity Not available.
METAR LPPR 252330Z 10002KT 9000 NSC 06/05 Q1030

More Conditions Fewer Conditions

Pressure 30.42 in
Visibility 5.6 miles
Clouds
Windchill 37 °F
Dew Point 31 °F
Humidity 79%
Rainfall 0.00 in
Snow Depth Not available.
UV Not available.
Pollen Not available.
Air Quality Not available.
Flu Activity Not available.
METAR LPPR 252330Z 10002KT 9000 NSC 06/05 Q1030

More Conditions Fewer Conditions

10-Day Weather Forecast

Almanac

Astronomy

Jan. 25, 2015 Rise Set
Actual Time
Civil Twilight
Nautical Twilight
Astronomical Twilight
Moon
Length of Visible Light
Length of Day
Tomorrow will be .
, % of the Moon is Illuminated

Today's Extremes

Country Highs Country Lows

Community

WunderPhotos

Upload Photos

1,790,048 photos uploaded!

WunderBlogs® & News

Nearby

Air Quality

  Air Quality AQ Index Pollutant
Not available.

Snow Depth

Station Depth Elevation

Earthquake Activity

City Distance Mag. Time & Date
Minimum magnitude displayed is 2.5.

Coastal Water Temperatures

Place Temperature

Nearby Weather Stations